Kezdőlap
METAR-TAF:

METAR-TAF

Repülőterek :

Lahr, Németország

földrajzi szélesség: 48-22-09N, földrajzi hosszúság: 007-49-40E, magasság: 156 m

Jelenlegi meteorológiai megfigyelések

A jelentés 2 órával és 24 perccel ezelõtt készült, 13:50 UTC
Északi szél 9 kt, nyugat-északnyugati és északkeleti között változik
Hőmérséklet 22°C
Páratartalom 33%
Légköri nyomás 1018 hPa
Látótávolság 10 km, vagy több
felhőtlen 1500 m magasságban, és nincs gomolyfelhõ

METAR: EDTL 311350Z 35009KT 300V040 CAVOK 22/05 Q1018

Idő: 18:14 (16:14 UTC)


TAF: hiányzik

Meteorológiai megfigyelések és előrejelzések több, mint 4000 repülőtéren (METAR és TAF jelentéseket).

A térképen piros és sárga pontok jelzik az elérhető meteorológiai állomásokat.

Mozgassa az egeret a pont fölött, hogy megjelenjen az állomás neve.

Azután kattintson az időjárási megfigyelések és előrejelzések megtekintéséhez.

A térkép megváltoztatása: kattintson a fekete keresztel jelölt zöld gombra ráközelítéshez, a vonallal jelölt zöld gombra távolításhoz, vagy a zöld nyilakra a szomszédos térképek eléréséhez.


METAR-TAF: